Terminal Aerodrome Forecast
Issued by NWS Austin/San Antonio, TX

Home | Current Version | Previous Version | Text Only | Print | Product List | Glossary On
Versions: 1 2 3 4 5 6 7 8 9 10 11 12 13 14 15 16 17 18 19 20 21 22 23 24 25 26
060
FTUS44 KEWX 291819 AAA
TAFAUS
TAF AMD
KAUS 291819Z 2918/3024 16005KT P6SM SCT021 BKN027 BKN035
     FM292000 07008KT P6SM VCSH SCT025 BKN035
     FM300100 05003KT P6SM FEW050
     FM301000 10003KT 5SM BR FEW010 BKN020
     FM301700 04007KT P6SM SCT020 BKN035=

USA.gov is the U.S. government's official web portal to all federal, state and local government web resources and services.